Vega Alta, PR

12:12 AM AST del 30 Agosto 2014 (GMT -0400)
Goodwinds at Dorado Beach Resort | Change Station
CLOSE
Current Station
Stazione meteo personale
Location: Dorado, PR
Altitudine: 0 ft
Stazioni meteo nelle vicinanze

Alt. 0 ft 18.48 °N, 66.30 °W | Updated 4 minutes ago

Scattered Clouds
Nubi sparse
77.5 °F
Sembra 79 °F
N
0.0
Vento Variabile Vento da Est
Gusts 1.0 mph

Oggi
Massima -- | Minima -- °F
--% Possibilità di precip.
Ieri
Massima -- | Minima -- °F
Precip. -- in
6:10 AM 6:41 PM
Luna crescente, 19% visible
Pressione 30.06 in
Visibilità 10.0 miglia
Nuvole Alcuni 2100 ft
Nubi sparse 3500 ft
Indice di calore 79 °F
Punto di rugiada 74 °F
Umidità 88%
Piovosità -9999.00 in
Spessore del manto nevoso Non disponibile.
Raggi UV 0 fuori da 12
Polline Non disponibile.
Qualità dell'aria Non disponibile.
Flu Activity Non disponibile.
METAR TJSJ 300356Z 00000KT 10SM FEW021 SCT035 27/25 A3007 RMK AO2 RAB0257E15 SLP180 P0000 T02720250 403060250

More Conditions Fewer Conditions

Pressione 30.06 in
Visibilità 10.0 miglia
Nuvole Alcuni 2100 ft
Nubi sparse 3500 ft
Indice di calore 79 °F
Punto di rugiada 74 °F
Umidità 88%
Piovosità -9999.00 in
Spessore del manto nevoso Non disponibile.
Raggi UV 0 fuori da 12
Polline Non disponibile.
Qualità dell'aria Non disponibile.
Flu Activity Non disponibile.
METAR TJSJ 300356Z 00000KT 10SM FEW021 SCT035 27/25 A3007 RMK AO2 RAB0257E15 SLP180 P0000 T02720250 403060250

More Conditions Fewer Conditions

10-Day Weather Forecast

Almanac

Astronomia

Aug. 30, 2014 Alba Tramonto
Ora attuale 06:10 AST 18:41 AST
Crepuscolo civile 05:48 AST 19:03 AST
Crepuscolo nautico 05:22 AST 19:29 AST
Crepuscolo astronomico 04:56 AST 19:55 AST
Luna 10:10 AST 21:59 AST
Estensione della luce visibile 13h 15m
Lunghezza del giorno
12h 30m
Tomorrow will be 1m 0s shorter.
Luna crescente, 19% of the Moon is Illuminated
Oggi
Luna crescente
Set 2
Primo quarto
Set 8
Luna piena
Set 15
Ultimo quarto
Set 24
Nuovo

Community

WunderPhotos

Upload Photos

1,748,448 foto caricate!

Nearby

Qualità dell'aria

Not available.

Profondità neve

Stazione Profondità Altitudine
Non sono state evidenziate nuove nevicate

Attività sismica

Città  Distanza Mag. Data & Ora
Non sono state riportate attività sismiche nelle vicinanze.
Minimo Magnitudo Mostrato è 2.5.

Temperature delle acque costiere

Località Temperatura
San Juan, PR 84.9 °F
Mayaguez, PR 84.0 °F
Esperanza, PR 84.0 °F

Stazioni meteo nelle vicinanze